createdAt,value
2022-08-11T00:02:38.189Z,42.74
2022-08-11T00:05:24.374Z,42.34
2022-08-11T00:07:53.655Z,42.71
2022-08-11T00:10:23.150Z,42.69
2022-08-11T00:12:57.257Z,42.72
2022-08-11T00:15:25.248Z,42.64
2022-08-11T00:17:58.960Z,42.72
2022-08-11T00:20:31.383Z,43.09
2022-08-11T00:23:03.114Z,42.85
2022-08-11T00:25:30.062Z,42.95
2022-08-11T00:27:56.618Z,43.20
2022-08-11T00:30:23.672Z,42.84
2022-08-11T00:32:58.601Z,42.66
2022-08-11T00:35:55.548Z,42.83
2022-08-11T00:38:17.533Z,43.00
2022-08-11T00:41:14.932Z,43.01
2022-08-11T00:44:15.616Z,43.22
2022-08-11T00:47:02.590Z,43.59
2022-08-11T00:50:06.129Z,43.89
2022-08-11T00:52:51.068Z,44.09
2022-08-11T00:55:47.282Z,44.00
2022-08-11T00:59:03.435Z,44.28
2022-08-11T01:01:44.350Z,44.44
2022-08-11T01:04:44.671Z,44.18
2022-08-11T01:08:01.905Z,44.37
2022-08-11T01:10:46.638Z,44.33
2022-08-11T01:13:33.263Z,44.89
2022-08-11T01:16:31.070Z,45.05
2022-08-11T01:19:25.160Z,45.03
2022-08-11T01:22:09.900Z,45.25
2022-08-11T01:25:30.809Z,45.24
2022-08-11T01:28:28.349Z,45.29
2022-08-11T01:31:16.972Z,45.24
2022-08-11T01:34:04.915Z,45.61
2022-08-11T01:37:02.504Z,45.77
2022-08-11T01:39:44.327Z,45.58
2022-08-11T01:42:29.364Z,46.03
2022-08-11T01:45:17.499Z,46.10
2022-08-11T01:48:00.817Z,46.54
2022-08-11T01:50:49.051Z,46.33
2022-08-11T01:53:44.457Z,46.61
2022-08-11T01:56:10.872Z,46.52
2022-08-11T01:59:10.568Z,46.58
2022-08-11T02:01:58.296Z,46.94
2022-08-11T02:04:42.200Z,46.89
2022-08-11T02:07:19.377Z,47.38
2022-08-11T02:09:51.752Z,47.07
2022-08-11T02:12:31.826Z,46.72
2022-08-11T02:15:26.465Z,46.60
2022-08-11T02:18:21.950Z,46.46
2022-08-11T02:21:21.027Z,46.81
2022-08-11T02:24:05.537Z,46.60
2022-08-11T02:26:44.392Z,47.04
2022-08-11T02:29:29.793Z,47.20
2022-08-11T02:32:30.783Z,46.90
2022-08-11T02:35:14.404Z,46.88
2022-08-11T02:38:02.637Z,46.99
2022-08-11T02:40:47.383Z,47.07
2022-08-11T02:43:38.852Z,47.31
2022-08-11T02:46:20.257Z,47.51
2022-08-11T02:49:36.480Z,47.49
2022-08-11T02:52:09.360Z,47.54
2022-08-11T02:54:53.432Z,48.01
2022-08-11T02:57:37.844Z,47.95
2022-08-11T03:00:10.303Z,48.05
2022-08-11T03:03:02.621Z,47.79
2022-08-11T03:06:00.266Z,47.96
2022-08-11T03:08:49.045Z,47.99
2022-08-11T03:11:44.104Z,48.08
2022-08-11T03:14:47.687Z,48.28
2022-08-11T03:17:37.082Z,48.38
2022-08-11T03:20:09.354Z,48.46
2022-08-11T03:22:49.714Z,48.63
2022-08-11T03:25:49.632Z,48.89
2022-08-11T03:28:19.168Z,49.15
2022-08-11T03:30:56.939Z,48.91
2022-08-11T03:33:51.332Z,49.12
2022-08-11T03:36:36.843Z,49.05
2022-08-11T03:39:40.286Z,49.16
2022-08-11T03:42:33.860Z,49.12
2022-08-11T03:45:07.330Z,49.18
2022-08-11T03:47:55.585Z,49.49
2022-08-11T03:50:48.236Z,49.50
2022-08-11T03:53:44.252Z,49.41
2022-08-11T03:56:11.369Z,49.40
2022-08-11T03:59:10.550Z,49.58
2022-08-11T04:02:08.456Z,49.91
2022-08-11T04:05:12.694Z,49.63
2022-08-11T04:08:11.937Z,49.75
2022-08-11T04:11:12.181Z,49.91
2022-08-11T04:14:49.713Z,50.19
2022-08-11T04:17:44.037Z,50.30
2022-08-11T04:20:49.448Z,50.03
2022-08-11T04:24:12.896Z,50.12
2022-08-11T04:27:07.232Z,50.20
2022-08-11T04:30:13.254Z,50.37
2022-08-11T04:33:14.839Z,50.70
2022-08-11T04:35:59.667Z,50.53
2022-08-11T04:38:53.168Z,50.82
2022-08-11T04:42:17.204Z,50.77
2022-08-11T04:45:26.240Z,50.90
2022-08-11T04:48:36.160Z,50.89
2022-08-11T04:51:40.271Z,51.29
2022-08-11T04:54:55.689Z,51.04
2022-08-11T04:58:31.106Z,50.96
2022-08-11T05:01:41.250Z,50.82
2022-08-11T05:05:00.732Z,50.73
2022-08-11T05:08:02.237Z,50.36
2022-08-11T05:10:59.671Z,50.26
2022-08-11T05:13:52.500Z,50.30
2022-08-11T05:16:44.494Z,50.65
2022-08-11T05:19:36.466Z,49.53
2022-08-11T05:22:24.349Z,49.42
2022-08-11T05:26:44.596Z,49.10
2022-08-11T05:28:31.994Z,49.47
2022-08-11T05:31:28.563Z,48.84
2022-08-11T05:34:36.642Z,48.52
2022-08-11T05:37:25.805Z,48.46
2022-08-11T05:40:16.264Z,48.51
2022-08-11T05:43:08.751Z,48.43
2022-08-11T05:46:03.680Z,47.97
2022-08-11T05:48:54.635Z,47.63
2022-08-11T05:51:51.966Z,48.12
2022-08-11T05:54:46.085Z,47.74
2022-08-11T05:57:44.004Z,47.57
2022-08-11T06:00:10.426Z,46.85
2022-08-11T06:02:42.710Z,46.79
2022-08-11T06:05:10.309Z,46.67
2022-08-11T06:07:49.236Z,46.18
2022-08-11T06:10:27.535Z,46.09
2022-08-11T06:12:55.937Z,46.25
2022-08-11T06:15:23.232Z,45.49
2022-08-11T06:17:51.257Z,46.14
2022-08-11T06:20:19.591Z,45.09
2022-08-11T06:22:55.584Z,44.98
2022-08-11T06:25:30.116Z,44.97
2022-08-11T06:27:57.373Z,45.02
2022-08-11T06:30:39.870Z,44.65
2022-08-11T06:33:13.791Z,44.40
2022-08-11T06:35:49.111Z,43.93
2022-08-11T06:38:41.658Z,44.18
2022-08-11T06:41:32.050Z,43.93
2022-08-11T06:44:07.304Z,43.54
2022-08-11T06:46:39.599Z,43.71
2022-08-11T06:49:30.256Z,43.36
2022-08-11T06:52:01.820Z,43.43
2022-08-11T06:54:33.798Z,42.93
2022-08-11T06:57:30.235Z,43.10
2022-08-11T07:00:28.078Z,42.69
2022-08-11T07:03:03.223Z,42.61
2022-08-11T07:05:47.477Z,42.46
2022-08-11T07:08:57.596Z,42.37
2022-08-11T07:12:04.981Z,41.86
2022-08-11T07:14:51.367Z,41.45
2022-08-11T07:17:21.827Z,41.47
2022-08-11T07:20:11.628Z,41.67
2022-08-11T07:22:58.059Z,41.49
2022-08-11T07:25:44.223Z,41.42
2022-08-11T07:28:36.053Z,41.33
2022-08-11T07:31:07.564Z,41.04
2022-08-11T07:34:08.200Z,40.75
2022-08-11T07:36:35.102Z,40.71
2022-08-11T07:39:02.891Z,40.80
2022-08-11T07:41:34.714Z,40.51
2022-08-11T07:44:09.145Z,40.48
2022-08-11T07:47:14.820Z,39.95
2022-08-11T07:50:03.948Z,40.07
2022-08-11T07:52:34.748Z,39.76
2022-08-11T07:55:05.250Z,39.79
2022-08-11T07:58:15.225Z,39.48
2022-08-11T08:01:01.281Z,39.38
2022-08-11T08:03:54.251Z,38.92
2022-08-11T08:06:41.102Z,39.28
2022-08-11T08:09:27.954Z,39.05
2022-08-11T08:12:14.436Z,38.95
2022-08-11T08:15:00.980Z,38.59
2022-08-11T08:18:09.651Z,38.04
2022-08-11T08:20:38.869Z,38.58
2022-08-11T08:23:06.675Z,37.70
2022-08-11T08:25:36.206Z,38.10
2022-08-11T08:28:09.090Z,37.55
2022-08-11T08:30:50.561Z,37.46
2022-08-11T08:33:31.436Z,37.00
2022-08-11T08:36:16.881Z,36.92
2022-08-11T08:38:47.383Z,37.35
2022-08-11T08:41:17.419Z,36.79
2022-08-11T08:43:49.640Z,36.88
2022-08-11T08:46:20.701Z,36.49
2022-08-11T08:48:49.173Z,36.50
2022-08-11T08:51:57.917Z,36.54
2022-08-11T08:54:29.764Z,35.73
2022-08-11T08:56:57.452Z,35.40
2022-08-11T08:59:47.409Z,35.69
2022-08-11T09:02:14.559Z,35.75
2022-08-11T09:04:45.471Z,35.25
2022-08-11T09:07:18.287Z,34.88
2022-08-11T09:09:48.120Z,35.02
2022-08-11T09:12:15.504Z,35.15
2022-08-11T09:15:03.572Z,34.86
2022-08-11T09:17:31.520Z,34.86
2022-08-11T09:20:12.223Z,34.40
2022-08-11T09:23:41.716Z,33.81
2022-08-11T09:26:07.110Z,34.28
2022-08-11T09:28:36.719Z,34.13
2022-08-11T09:31:05.171Z,33.45
2022-08-11T09:33:32.993Z,33.19
2022-08-11T09:36:20.488Z,33.41
2022-08-11T09:39:05.971Z,33.63
2022-08-11T09:42:00.612Z,33.10
2022-08-11T09:44:38.993Z,32.63
2022-08-11T09:47:08.207Z,32.41
2022-08-11T09:49:37.684Z,32.78
2022-08-11T09:52:09.394Z,32.56
2022-08-11T09:54:36.959Z,31.94
2022-08-11T09:57:23.482Z,31.93
2022-08-11T09:59:52.340Z,31.60
2022-08-11T10:02:43.815Z,31.32
2022-08-11T10:05:38.307Z,31.74
2022-08-11T10:08:05.925Z,31.49
2022-08-11T10:10:37.580Z,31.58
2022-08-11T10:14:31.870Z,31.54
2022-08-11T10:16:00.051Z,31.15
2022-08-11T10:18:49.267Z,31.42
2022-08-11T10:21:28.400Z,31.11
2022-08-11T10:24:17.178Z,31.47
2022-08-11T10:27:00.601Z,30.07
2022-08-11T10:29:52.058Z,31.27
2022-08-11T10:32:57.261Z,30.48
2022-08-11T10:35:27.997Z,30.67
2022-08-11T10:38:08.084Z,30.40
2022-08-11T10:40:38.811Z,30.30
2022-08-11T10:43:13.296Z,30.35
2022-08-11T10:46:01.325Z,29.98
2022-08-11T10:48:30.089Z,29.85
2022-08-11T10:51:15.401Z,29.49
2022-08-11T10:54:11.604Z,29.54
2022-08-11T10:56:59.107Z,29.20
2022-08-11T10:59:28.213Z,29.23
2022-08-11T11:01:55.466Z,29.38
2022-08-11T11:04:35.607Z,28.87
2022-08-11T11:07:20.573Z,28.84
2022-08-11T11:09:50.514Z,28.21
2022-08-11T11:12:58.760Z,28.33
2022-08-11T11:16:07.549Z,28.42
2022-08-11T11:18:37.211Z,28.61
2022-08-11T11:21:08.832Z,28.56
2022-08-11T11:23:41.700Z,28.74
2022-08-11T11:26:28.103Z,28.41
2022-08-11T11:29:02.227Z,28.53
2022-08-11T11:31:50.540Z,28.11
2022-08-11T11:34:52.980Z,28.32
2022-08-11T11:37:23.587Z,28.51
2022-08-11T11:39:50.882Z,28.20
2022-08-11T11:42:18.984Z,28.30
2022-08-11T11:44:47.782Z,27.75
2022-08-11T11:47:21.589Z,27.56
2022-08-11T11:49:49.648Z,27.64
2022-08-11T11:52:21.754Z,27.31
2022-08-11T11:54:51.596Z,27.99
2022-08-11T11:57:38.878Z,27.63
2022-08-11T12:00:33.702Z,27.32
2022-08-11T12:03:06.898Z,27.34
2022-08-11T12:05:38.415Z,26.85
2022-08-11T12:08:16.273Z,26.84
2022-08-11T12:11:11.829Z,27.08
2022-08-11T12:13:40.999Z,26.99
2022-08-11T12:16:33.390Z,27.05
2022-08-11T12:19:00.700Z,26.42
2022-08-11T12:21:28.748Z,26.48
2022-08-11T12:24:16.093Z,26.58
2022-08-11T12:27:15.290Z,26.82
2022-08-11T12:29:41.161Z,26.12
2022-08-11T12:32:11.054Z,26.47
2022-08-11T12:34:37.802Z,26.09
2022-08-11T12:37:10.885Z,25.96
2022-08-11T12:40:15.820Z,25.73
2022-08-11T12:43:21.962Z,25.93
2022-08-11T12:45:54.052Z,26.21
2022-08-11T12:49:01.237Z,25.70
2022-08-11T12:52:00.990Z,25.32
2022-08-11T12:54:57.552Z,25.88
2022-08-11T12:57:56.517Z,25.81
2022-08-11T13:00:43.526Z,25.24
2022-08-11T13:03:30.055Z,24.96
2022-08-11T13:05:59.697Z,25.00
2022-08-11T13:08:29.311Z,24.67
2022-08-11T13:11:17.026Z,24.83
2022-08-11T13:13:55.353Z,24.83
2022-08-11T13:16:27.957Z,24.88
2022-08-11T13:18:56.341Z,24.99
2022-08-11T13:21:23.891Z,24.92
2022-08-11T13:23:59.413Z,25.00
2022-08-11T13:26:46.581Z,25.27
2022-08-11T13:29:27.330Z,24.29
2022-08-11T13:31:56.327Z,24.38
2022-08-11T13:34:25.193Z,24.94
2022-08-11T13:36:55.553Z,24.84
2022-08-11T13:39:25.887Z,24.65
2022-08-11T13:41:59.391Z,24.35
2022-08-11T13:44:28.878Z,24.30
2022-08-11T13:47:04.769Z,24.45
2022-08-11T13:49:33.505Z,23.32
2022-08-11T13:52:01.100Z,24.01
2022-08-11T13:54:31.165Z,23.74
2022-08-11T13:57:01.832Z,23.46
2022-08-11T13:59:30.039Z,23.90
2022-08-11T14:02:22.252Z,23.44
2022-08-11T14:05:01.505Z,23.62
2022-08-11T14:07:35.844Z,24.03
2022-08-11T14:10:06.851Z,24.13
2022-08-11T14:12:54.495Z,23.76
2022-08-11T14:15:25.299Z,23.36
2022-08-11T14:17:57.252Z,23.76
2022-08-11T14:20:38.187Z,23.67
2022-08-11T14:23:07.435Z,23.55
2022-08-11T14:26:01.294Z,22.88
2022-08-11T14:28:34.146Z,23.42
2022-08-11T14:31:05.321Z,23.10
2022-08-11T14:33:58.844Z,23.33
2022-08-11T14:36:23.055Z,23.91
2022-08-11T14:38:51.023Z,23.45
2022-08-11T14:41:37.106Z,22.95
2022-08-11T14:44:43.858Z,23.08
2022-08-11T14:47:23.919Z,23.02
2022-08-11T14:50:09.628Z,22.88
2022-08-11T14:52:52.670Z,23.32
2022-08-11T14:56:01.074Z,23.25
2022-08-11T14:58:30.751Z,22.72
2022-08-11T15:00:59.165Z,23.09
2022-08-11T15:03:28.489Z,22.94
2022-08-11T15:05:58.816Z,22.81
2022-08-11T15:08:52.587Z,23.17
2022-08-11T15:11:39.973Z,22.71
2022-08-11T15:14:08.868Z,22.52
2022-08-11T15:17:00.221Z,23.07
2022-08-11T15:19:29.889Z,22.98
2022-08-11T15:22:27.437Z,23.12
2022-08-11T15:24:54.484Z,22.53
2022-08-11T15:27:41.736Z,23.10
2022-08-11T15:30:33.871Z,22.78
2022-08-11T15:33:25.647Z,22.93
2022-08-11T15:36:12.919Z,22.67
2022-08-11T15:38:44.579Z,22.86
2022-08-11T15:41:34.024Z,22.96
2022-08-11T15:44:38.702Z,22.80
2022-08-11T15:47:14.314Z,22.43
2022-08-11T15:50:12.077Z,23.22
2022-08-11T15:52:39.248Z,22.76
2022-08-11T15:55:08.657Z,22.51
2022-08-11T15:57:55.619Z,23.13
2022-08-11T16:00:41.594Z,23.64
2022-08-11T16:03:54.452Z,23.08
2022-08-11T16:06:16.271Z,23.10
2022-08-11T16:08:44.713Z,23.84
2022-08-11T16:11:11.725Z,23.16
2022-08-11T16:13:40.441Z,23.01
2022-08-11T16:16:15.327Z,23.77
2022-08-11T16:18:56.507Z,23.62
2022-08-11T16:21:39.138Z,23.75
2022-08-11T16:26:30.389Z,24.10
2022-08-11T16:27:11.180Z,24.37
2022-08-11T16:29:44.210Z,24.02
2022-08-11T16:32:18.113Z,24.46
2022-08-11T16:35:07.724Z,24.38
2022-08-11T16:37:54.992Z,24.07
2022-08-11T16:40:22.829Z,24.30
2022-08-11T16:43:09.630Z,24.28
2022-08-11T16:45:56.584Z,24.65
2022-08-11T16:48:37.517Z,24.53
2022-08-11T16:51:11.796Z,24.46
2022-08-11T16:54:03.564Z,24.48
2022-08-11T16:56:48.048Z,24.81
2022-08-11T16:59:22.845Z,24.59
2022-08-11T17:02:08.875Z,24.20
2022-08-11T17:05:05.019Z,24.48
2022-08-11T17:07:51.284Z,24.60
2022-08-11T17:10:53.414Z,24.93
2022-08-11T17:13:40.280Z,24.94
2022-08-11T17:16:13.919Z,25.06
2022-08-11T17:19:03.462Z,24.80
2022-08-11T17:21:34.078Z,24.72
2022-08-11T17:24:08.693Z,25.01
2022-08-11T17:26:56.855Z,25.14
2022-08-11T17:29:54.481Z,25.15
2022-08-11T17:32:55.740Z,24.95
2022-08-11T17:35:30.962Z,25.12
2022-08-11T17:38:03.825Z,25.48
2022-08-11T17:40:32.608Z,25.57
2022-08-11T17:43:19.631Z,25.56
2022-08-11T17:46:05.011Z,25.19
2022-08-11T17:48:47.381Z,25.14
2022-08-11T17:55:02.725Z,23.96
2022-08-11T17:57:51.563Z,24.01
2022-08-11T18:00:18.256Z,22.43
2022-08-11T18:03:04.495Z,22.73
2022-08-11T18:05:34.133Z,22.64
2022-08-11T18:08:23.669Z,23.55
2022-08-11T18:11:10.490Z,24.57
2022-08-11T18:13:59.064Z,25.20
2022-08-11T18:16:44.538Z,25.35
2022-08-11T18:19:30.967Z,26.21
2022-08-11T18:22:34.694Z,26.73
2022-08-11T18:25:35.681Z,27.14
2022-08-11T18:28:25.206Z,26.79
2022-08-11T18:31:20.041Z,27.22
2022-08-11T18:34:20.617Z,27.56
2022-08-11T18:37:33.735Z,27.52
2022-08-11T18:40:29.805Z,27.53
2022-08-11T18:43:21.782Z,28.02
2022-08-11T18:46:12.072Z,27.72
2022-08-11T18:49:11.774Z,28.04
2022-08-11T18:52:00.194Z,28.22
2022-08-11T18:54:48.871Z,28.19
2022-08-11T18:57:49.798Z,28.17
2022-08-11T19:00:41.116Z,28.32
2022-08-11T19:03:28.247Z,28.37
2022-08-11T19:06:39.462Z,28.26
2022-08-11T19:09:26.334Z,29.00
2022-08-11T19:12:13.528Z,28.84
2022-08-11T19:15:01.041Z,28.97
2022-08-11T19:17:49.109Z,28.99
2022-08-11T19:20:38.587Z,29.01
2022-08-11T19:23:26.025Z,28.89
2022-08-11T19:26:12.452Z,28.98
2022-08-11T19:29:00.399Z,29.71
2022-08-11T19:31:48.482Z,29.62
2022-08-11T19:34:41.874Z,30.07
2022-08-11T19:37:30.249Z,29.83
2022-08-11T19:40:27.391Z,30.41
2022-08-11T19:43:24.454Z,30.26
2022-08-11T19:46:16.217Z,30.67
2022-08-11T19:49:04.897Z,30.33
2022-08-11T19:51:54.517Z,31.19
2022-08-11T19:54:47.940Z,31.32
2022-08-11T19:57:39.979Z,30.97
2022-08-11T20:00:37.810Z,31.52
2022-08-11T20:03:27.750Z,31.29
2022-08-11T20:06:16.096Z,31.76
2022-08-11T20:09:04.017Z,31.96
2022-08-11T20:11:55.526Z,31.94
2022-08-11T20:14:43.934Z,31.97
2022-08-11T20:17:32.497Z,31.81
2022-08-11T20:20:22.949Z,32.17
2022-08-11T20:23:12.691Z,32.09
2022-08-11T20:26:08.577Z,32.53
2022-08-11T20:29:04.573Z,32.35
2022-08-11T20:31:51.042Z,32.46
2022-08-11T20:34:36.420Z,33.03
2022-08-11T20:37:23.618Z,32.53
2022-08-11T20:40:09.814Z,32.75
2022-08-11T20:42:56.249Z,32.53
2022-08-11T20:45:55.186Z,32.69
2022-08-11T20:48:43.622Z,33.19
2022-08-11T20:54:43.638Z,33.24
2022-08-11T20:58:00.046Z,32.90
2022-08-11T21:00:38.699Z,33.43
2022-08-11T21:03:36.318Z,33.35
2022-08-11T21:06:33.025Z,33.52
2022-08-11T21:09:21.803Z,33.59
2022-08-11T21:12:14.404Z,33.57
2022-08-11T21:15:00.257Z,34.41
2022-08-11T21:18:00.621Z,34.23
2022-08-11T21:20:55.038Z,34.04
2022-08-11T21:23:43.005Z,34.48
2022-08-11T21:26:32.306Z,34.95
2022-08-11T21:29:18.661Z,34.94
2022-08-11T21:32:06.265Z,34.82
2022-08-11T21:34:53.581Z,35.31
2022-08-11T21:37:39.820Z,35.07
2022-08-11T21:40:28.266Z,35.15
2022-08-11T21:43:16.318Z,35.28
2022-08-11T21:46:02.483Z,35.38
2022-08-11T21:48:49.608Z,35.35
2022-08-11T21:51:34.918Z,35.25
2022-08-11T21:54:20.706Z,35.33
2022-08-11T21:57:06.538Z,35.46
2022-08-11T22:00:16.617Z,35.96
2022-08-11T22:03:05.382Z,35.86
2022-08-11T22:05:52.367Z,35.69
2022-08-11T22:08:37.773Z,35.73
2022-08-11T22:11:32.203Z,35.80
2022-08-11T22:14:21.526Z,35.61
2022-08-11T22:17:06.594Z,35.61
2022-08-11T22:19:53.994Z,35.67
2022-08-11T22:22:51.914Z,35.04
2022-08-11T22:25:46.471Z,35.19
2022-08-11T22:28:36.853Z,35.48
2022-08-11T22:31:24.385Z,34.97
2022-08-11T22:34:09.780Z,35.15
2022-08-11T22:36:55.911Z,35.43
2022-08-11T22:39:42.607Z,35.66
2022-08-11T22:42:33.383Z,35.68
2022-08-11T22:45:19.988Z,35.62
2022-08-11T22:48:07.896Z,35.93
2022-08-11T22:50:55.216Z,36.08
2022-08-11T22:53:58.388Z,36.14
2022-08-11T22:56:46.734Z,35.90
2022-08-11T22:59:33.201Z,35.77
2022-08-11T23:02:20.190Z,36.15
2022-08-11T23:05:07.570Z,36.04
2022-08-11T23:07:54.559Z,36.67
2022-08-11T23:10:40.384Z,36.72
2022-08-11T23:13:26.165Z,36.92
2022-08-11T23:16:13.247Z,36.58
2022-08-11T23:18:59.541Z,37.10
2022-08-11T23:21:46.860Z,36.80
2022-08-11T23:24:32.818Z,37.46
2022-08-11T23:27:20.457Z,37.02
2022-08-11T23:30:08.997Z,37.40
2022-08-11T23:32:55.900Z,37.84
2022-08-11T23:35:53.554Z,37.46
2022-08-11T23:38:42.103Z,38.05
2022-08-11T23:41:27.359Z,37.96
2022-08-11T23:44:13.785Z,38.25
2022-08-11T23:47:00.708Z,38.06
2022-08-11T23:49:46.986Z,38.33
2022-08-11T23:52:33.770Z,38.35
2022-08-11T23:55:19.117Z,38.72
2022-08-11T23:58:04.865Z,38.94
